• Join FlightAware (Why Join?)
  • Login
  • US Flag 
07:07AM EDT


 

Airport Tracker/Info


-or-


 

Live Flight TrackerFlight Track Log ✈ CHB6209 ✈ 16-Jul-2014 ✈ ZUJZ / JZH - ZHCC / CGO

Flight Track Log - Related Links

Times and Time Zones

All times are in EDT time to prevent confusion due to time zone crossing. See the CHB6209 flight status page for this flight to view local times or setup timezone preferences in your user account.

Time Position Orientation Groundspeed Altitude Reporting Facility
EDT Latitude Longitude Course Direction KTS MPH feet Rate Location/Type
09:07PM 33.0721 104.7398 76° East  Level Estimated
09:08PM 33.0954 104.8575 77° East  Level Estimated
09:09PM 33.1187 104.9753 77° East  Level Estimated
09:10PM 33.1418 105.0932 77° East  Level Estimated
09:11PM 33.1648 105.2111 77° East  Level Estimated
09:12PM 33.1877 105.3291 77° East  Level Estimated
09:13PM 33.2105 105.4471 77° East  Level Estimated
09:14PM 33.2332 105.5652 77° East  Level Estimated
09:15PM 33.2558 105.6834 77° East  Level Estimated
09:16PM 33.2782 105.8017 77° East  Level Estimated
09:17PM 33.3006 105.9199 77° East  Level Estimated
09:18PM 33.3228 106.0383 77° East  Level Estimated
09:19PM 33.3449 106.1567 77° East  Level Estimated
09:20PM 33.3669 106.2752 77° East  Level Estimated
09:21PM 33.3888 106.3937 77° East  Level Estimated
09:22PM 33.4106 106.5123 78° East  Level Estimated
09:23PM 33.4323 106.6310 78° East  Level Estimated
09:24PM 33.4538 106.7497 78° East  Level Estimated
09:25PM 33.4753 106.8684 78° East  Level Estimated
09:26PM 33.4966 106.9873 78° East  Level Estimated
09:27PM 33.5178 107.1061 78° East  Level Estimated
09:28PM 33.5389 107.2251 78° East  Level Estimated
09:29PM 33.5599 107.3441 78° East  Level Estimated
09:30PM 33.5808 107.4631 78° East  Level Estimated
09:31PM 33.6016 107.5823 78° East  Level Estimated
09:32PM 33.6222 107.7014 78° East  Level Estimated
09:33PM 33.6427 107.8207 78° East  Level Estimated
09:34PM 33.6632 107.9399 78° East  Level Estimated
09:35PM 33.6835 108.0593 78° East  Level Estimated
09:36PM 33.7037 108.1787 78° East  Level Estimated
09:37PM 33.7237 108.2981 79° East  Level Estimated
09:38PM 33.7437 108.4177 79° East  Level Estimated
09:39PM 33.7635 108.5372 79° East  Level Estimated
09:40PM 33.7833 108.6569 79° East  Level Estimated
09:41PM 33.8029 108.7765 79° East  Level Estimated
09:42PM 33.8224 108.8963 79° East  Level Estimated
09:43PM 33.8418 109.0161 79° East  Level Estimated
09:44PM 33.8610 109.1359 79° East  Level Estimated
09:45PM 33.8802 109.2558 79° East  Level Estimated
09:46PM 33.8992 109.3757 79° East  Level Estimated
09:47PM 33.9181 109.4957 79° East  Level Estimated
09:48PM 33.9369 109.6158 79° East  Level Estimated
09:49PM 33.9556 109.7359 79° East  Level Estimated
09:50PM 33.9742 109.8561 79° East  Level Estimated
09:51PM 33.9926 109.9763 79° East  Level Estimated
09:52PM 34.0110 110.0965 80° East  Level Estimated
09:53PM 34.0292 110.2169 80° East  Level Estimated
09:54PM 34.0473 110.3372 80° East  Level Estimated
09:55PM 34.0653 110.4576 80° East  Level Estimated
09:56PM 34.0831 110.5781 80° East  Level Estimated
09:57PM 34.1009 110.6986 80° East  Level Estimated
09:58PM 34.1185 110.8192 80° East  Level Estimated
09:59PM 34.1360 110.9398 80° East  Level Estimated
10:00PM 34.1534 111.0605 80° East  Level Estimated
10:01PM 34.1707 111.1812 80° East  Level Estimated
10:02PM 34.1879 111.3020 80° East  Level Estimated
10:03PM 34.2049 111.4228 80° East  Level Estimated
10:04PM 34.2218 111.5437 80° East  Level Estimated
10:05PM 34.2386 111.6646 80° East  Level Estimated
10:06PM 34.2553 111.7856 80° East  Level Estimated
10:07PM 34.2719 111.9066 81° East  Level Estimated
10:08PM 34.2883 112.0276 81° East  Level Estimated
10:09PM 34.3046 112.1487 81° East  Level Estimated
10:10PM 34.3209 112.2699 81° East  Level Estimated
10:11PM 34.3369 112.3911 81° East  Level Estimated
10:12PM 34.3529 112.5123 81° East  Level Estimated
10:13PM 34.3688 112.6336 81° East  Level Estimated
10:14PM 34.3845 112.7550 81° East  Level Estimated
10:15PM 34.4001 112.8764 81° East  Level Estimated
10:16PM 34.4156 112.9978 81° East  Level Estimated
10:17PM 34.4310 113.1193 81° East  Level Estimated
10:18PM 34.4462 113.2408 81° East  Level Estimated
10:19PM 34.4613 113.3623 81° East  Level Estimated
10:20PM 34.4763 113.4839 81° East  Level Estimated
10:21PM 34.4912 113.6056 82° East  Level Estimated
10:22PM 34.5060 113.7273 82° East  Level Estimated
10:23PM 34.5197 113.8409 82° East  Level Estimated
10:24PM 34.5197 113.8409 North  Level Estimated
10:25PM 34.5197 113.8409 North  Level Estimated
10:26PM 34.5197 113.8409 North  Level Estimated
10:27PM 34.5197 113.8409 North  Level Estimated
10:28PM 34.5197 113.8409 North  Level Estimated
10:29PM 34.5197 113.8409 North  Level Estimated
10:30PM 34.5197 113.8409 North  Level Estimated
10:31PM 34.5197 113.8409 North  Level Estimated
10:32PM 34.5197 113.8409 North  Level Estimated
10:33PM 34.5197 113.8409 North  Level Estimated
10:34PM 34.5197 113.8409 North  Level Estimated
10:35PM 34.5197 113.8409 North  Level Estimated
10:36PM 34.5197 113.8409 North  Level Estimated
10:37PM 34.5197 113.8409 North  Level Estimated